Port Costa, California
Current Conditions -  °F | °C
As of 12:53 PM on Saturday 22 Nov 2014 (Local Time) from KCCR Reporting Station
Broken Clouds Broken Clouds  
Wind Chill: 66°   Ceiling: 2500
Heat Index: 66°   Visibility: 10mi
Dew Point: 56°   Wind: 8mph
Humidity: 70%   Direction: 300°WNW
Pressure: 30.1"   Gusts: 18mph
Location:  38.05°N, 122.19°W
Report Text: KCCR 222053Z 30007G16KT 10SM SCT014 BKN025 BKN032 19/13 A3010 RMK AO2 SLP179 60000 T01890133 53008
Loading
Personal Weather Stations






























Interactive Weather Map New forecast layout! Learn more

10-Day Weather Forecast

Advertisements
Track Severe Weather on mobile